Terminal Aerodrome Forecast
Issued by NWS

Current Version | Previous Version | Graphics & Text | Print | Product List | Glossary On
Versions: 1 2 3 4 5 6 7 8 9 10 11 12 13 14 15 16 17 18
000
FTUS41 KRNK 300536
TAFLWB
TAF
KLWB 300536Z 3006/3106 00000KT 5SM BR SCT007 BKN090
     FM300800 00000KT 2SM BR SCT001
     FM301200 00000KT P6SM SCT015 BKN050
     FM301800 34005KT P6SM VCTS BKN040CB
     FM310000 00000KT P6SM SCT050 BKN250=

USA.gov is the U.S. government's official web portal to all federal, state and local government web resources and services.